sensor_id;sensor_type;location;lat;lon;timestamp;P1;durP1;ratioP1;P2;durP2;ratioP2
68989;SDS011;56046;47.270;11.368;2024-03-17T00:00:33;1.70;;;1.00;;
68989;SDS011;56046;47.270;11.368;2024-03-17T00:02:59;1.88;;;0.85;;
68989;SDS011;56046;47.270;11.368;2024-03-17T00:05:25;1.65;;;0.85;;
68989;SDS011;56046;47.270;11.368;2024-03-17T00:07:50;1.05;;;0.70;;
68989;SDS011;56046;47.270;11.368;2024-03-17T00:10:15;1.77;;;0.70;;
68989;SDS011;56046;47.270;11.368;2024-03-17T00:12:41;1.23;;;0.70;;
68989;SDS011;56046;47.270;11.368;2024-03-17T00:15:06;2.90;;;0.73;;
68989;SDS011;56046;47.270;11.368;2024-03-17T00:17:32;1.08;;;0.68;;
68989;SDS011;56046;47.270;11.368;2024-03-17T00:19:59;2.00;;;0.80;;
68989;SDS011;56046;47.270;11.368;2024-03-17T00:22:26;1.00;;;0.52;;
68989;SDS011;56046;47.270;11.368;2024-03-17T00:24:51;1.37;;;0.77;;
68989;SDS011;56046;47.270;11.368;2024-03-17T00:27:17;1.83;;;0.80;;
68989;SDS011;56046;47.270;11.368;2024-03-17T00:29:42;1.50;;;0.90;;
68989;SDS011;56046;47.270;11.368;2024-03-17T00:32:07;1.77;;;0.90;;
68989;SDS011;56046;47.270;11.368;2024-03-17T00:34:32;0.83;;;0.70;;
68989;SDS011;56046;47.270;11.368;2024-03-17T00:36:58;1.30;;;0.83;;
68989;SDS011;56046;47.270;11.368;2024-03-17T00:39:24;1.83;;;0.88;;
68989;SDS011;56046;47.270;11.368;2024-03-17T00:41:50;1.40;;;0.60;;
68989;SDS011;56046;47.270;11.368;2024-03-17T00:44:15;1.77;;;0.73;;
68989;SDS011;56046;47.270;11.368;2024-03-17T00:46:41;1.53;;;0.70;;
68989;SDS011;56046;47.270;11.368;2024-03-17T00:49:07;1.80;;;0.90;;
68989;SDS011;56046;47.270;11.368;2024-03-17T00:51:32;1.90;;;0.93;;
68989;SDS011;56046;47.270;11.368;2024-03-17T00:53:58;1.60;;;0.93;;
68989;SDS011;56046;47.270;11.368;2024-03-17T00:56:23;3.90;;;1.13;;
68989;SDS011;56046;47.270;11.368;2024-03-17T00:58:48;2.70;;;0.90;;
68989;SDS011;56046;47.270;11.368;2024-03-17T01:01:16;1.92;;;0.80;;
68989;SDS011;56046;47.270;11.368;2024-03-17T01:03:41;2.43;;;1.03;;
68989;SDS011;56046;47.270;11.368;2024-03-17T01:06:07;1.97;;;1.20;;
68989;SDS011;56046;47.270;11.368;2024-03-17T01:08:32;2.23;;;0.90;;
68989;SDS011;56046;47.270;11.368;2024-03-17T01:10:57;2.30;;;0.80;;
68989;SDS011;56046;47.270;11.368;2024-03-17T01:13:23;2.33;;;0.90;;
68989;SDS011;56046;47.270;11.368;2024-03-17T01:15:51;1.83;;;1.00;;
68989;SDS011;56046;47.270;11.368;2024-03-17T01:18:16;1.65;;;0.80;;
68989;SDS011;56046;47.270;11.368;2024-03-17T01:20:42;1.03;;;0.67;;
68989;SDS011;56046;47.270;11.368;2024-03-17T01:23:07;1.83;;;0.83;;
68989;SDS011;56046;47.270;11.368;2024-03-17T01:25:33;3.47;;;1.00;;
68989;SDS011;56046;47.270;11.368;2024-03-17T01:28:01;1.92;;;0.80;;
68989;SDS011;56046;47.270;11.368;2024-03-17T01:30:26;3.03;;;0.87;;
68989;SDS011;56046;47.270;11.368;2024-03-17T01:32:51;3.10;;;0.87;;
68989;SDS011;56046;47.270;11.368;2024-03-17T01:35:16;1.70;;;0.90;;
68989;SDS011;56046;47.270;11.368;2024-03-17T01:37:42;4.77;;;0.93;;
68989;SDS011;56046;47.270;11.368;2024-03-17T01:40:07;1.37;;;0.90;;
68989;SDS011;56046;47.270;11.368;2024-03-17T01:42:34;3.47;;;0.88;;
68989;SDS011;56046;47.270;11.368;2024-03-17T01:44:59;2.83;;;0.97;;
68989;SDS011;56046;47.270;11.368;2024-03-17T01:47:24;3.00;;;1.10;;
68989;SDS011;56046;47.270;11.368;2024-03-17T01:49:50;2.77;;;1.20;;
68989;SDS011;56046;47.270;11.368;2024-03-17T01:52:16;1.77;;;1.00;;
68989;SDS011;56046;47.270;11.368;2024-03-17T01:54:42;2.53;;;0.90;;
68989;SDS011;56046;47.270;11.368;2024-03-17T01:57:08;1.55;;;0.77;;
68989;SDS011;56046;47.270;11.368;2024-03-17T01:59:33;1.73;;;0.97;;
68989;SDS011;56046;47.270;11.368;2024-03-17T02:01:58;2.03;;;0.90;;
68989;SDS011;56046;47.270;11.368;2024-03-17T02:04:24;2.00;;;0.90;;
68989;SDS011;56046;47.270;11.368;2024-03-17T02:06:49;3.40;;;1.00;;
68989;SDS011;56046;47.270;11.368;2024-03-17T02:09:14;1.80;;;0.83;;
68989;SDS011;56046;47.270;11.368;2024-03-17T02:11:39;1.80;;;0.90;;
68989;SDS011;56046;47.270;11.368;2024-03-17T02:14:05;1.45;;;0.63;;
68989;SDS011;56046;47.270;11.368;2024-03-17T02:16:32;1.70;;;0.90;;
68989;SDS011;56046;47.270;11.368;2024-03-17T02:18:58;2.85;;;1.08;;
68989;SDS011;56046;47.270;11.368;2024-03-17T02:21:24;1.57;;;0.67;;
68989;SDS011;56046;47.270;11.368;2024-03-17T02:23:51;1.52;;;0.80;;
68989;SDS011;56046;47.270;11.368;2024-03-17T02:26:16;2.35;;;0.93;;
68989;SDS011;56046;47.270;11.368;2024-03-17T02:28:42;1.93;;;0.80;;
68989;SDS011;56046;47.270;11.368;2024-03-17T02:31:08;3.08;;;1.00;;
68989;SDS011;56046;47.270;11.368;2024-03-17T02:33:33;2.47;;;1.00;;
68989;SDS011;56046;47.270;11.368;2024-03-17T02:35:58;2.73;;;0.93;;
68989;SDS011;56046;47.270;11.368;2024-03-17T02:38:24;2.17;;;1.05;;
68989;SDS011;56046;47.270;11.368;2024-03-17T02:41:08;3.25;;;1.30;;
68989;SDS011;56046;47.270;11.368;2024-03-17T02:43:34;1.90;;;0.90;;
68989;SDS011;56046;47.270;11.368;2024-03-17T02:45:59;3.00;;;1.00;;
68989;SDS011;56046;47.270;11.368;2024-03-17T02:48:24;1.30;;;0.70;;
68989;SDS011;56046;47.270;11.368;2024-03-17T02:50:50;1.25;;;0.63;;
68989;SDS011;56046;47.270;11.368;2024-03-17T02:53:15;4.13;;;0.97;;
68989;SDS011;56046;47.270;11.368;2024-03-17T02:55:40;1.73;;;0.80;;
68989;SDS011;56046;47.270;11.368;2024-03-17T02:58:06;2.57;;;1.10;;
68989;SDS011;56046;47.270;11.368;2024-03-17T03:00:31;2.30;;;0.80;;
68989;SDS011;56046;47.270;11.368;2024-03-17T03:02:57;2.20;;;1.00;;
68989;SDS011;56046;47.270;11.368;2024-03-17T03:05:22;2.23;;;1.00;;
68989;SDS011;56046;47.270;11.368;2024-03-17T03:07:47;1.67;;;1.00;;
68989;SDS011;56046;47.270;11.368;2024-03-17T03:10:12;1.20;;;0.70;;
68989;SDS011;56046;47.270;11.368;2024-03-17T03:12:38;2.50;;;0.73;;
68989;SDS011;56046;47.270;11.368;2024-03-17T03:15:03;1.60;;;0.70;;
68989;SDS011;56046;47.270;11.368;2024-03-17T03:17:28;2.13;;;0.90;;
68989;SDS011;56046;47.270;11.368;2024-03-17T03:19:53;1.30;;;0.70;;
68989;SDS011;56046;47.270;11.368;2024-03-17T03:22:20;1.23;;;0.40;;
68989;SDS011;56046;47.270;11.368;2024-03-17T03:24:46;1.33;;;0.60;;
68989;SDS011;56046;47.270;11.368;2024-03-17T03:27:12;1.03;;;0.50;;
68989;SDS011;56046;47.270;11.368;2024-03-17T03:29:38;1.15;;;0.70;;
68989;SDS011;56046;47.270;11.368;2024-03-17T03:32:03;1.53;;;0.70;;
68989;SDS011;56046;47.270;11.368;2024-03-17T03:34:28;1.23;;;0.50;;
68989;SDS011;56046;47.270;11.368;2024-03-17T03:36:54;0.90;;;0.60;;
68989;SDS011;56046;47.270;11.368;2024-03-17T03:39:19;0.83;;;0.67;;
68989;SDS011;56046;47.270;11.368;2024-03-17T03:41:44;1.40;;;0.80;;
68989;SDS011;56046;47.270;11.368;2024-03-17T03:44:10;0.73;;;0.50;;
68989;SDS011;56046;47.270;11.368;2024-03-17T03:46:35;2.10;;;0.70;;
68989;SDS011;56046;47.270;11.368;2024-03-17T03:49:00;1.67;;;0.88;;
68989;SDS011;56046;47.270;11.368;2024-03-17T03:51:26;1.33;;;0.50;;
68989;SDS011;56046;47.270;11.368;2024-03-17T03:53:51;1.08;;;0.70;;
68989;SDS011;56046;47.270;11.368;2024-03-17T03:56:17;2.40;;;0.82;;
68989;SDS011;56046;47.270;11.368;2024-03-17T03:58:43;3.30;;;0.90;;
68989;SDS011;56046;47.270;11.368;2024-03-17T04:01:11;1.58;;;0.70;;
68989;SDS011;56046;47.270;11.368;2024-03-17T04:03:36;0.93;;;0.65;;
68989;SDS011;56046;47.270;11.368;2024-03-17T04:06:02;1.03;;;0.60;;
68989;SDS011;56046;47.270;11.368;2024-03-17T04:08:29;5.07;;;0.85;;
68989;SDS011;56046;47.270;11.368;2024-03-17T04:10:54;1.43;;;0.83;;
68989;SDS011;56046;47.270;11.368;2024-03-17T04:13:19;1.77;;;0.80;;
68989;SDS011;56046;47.270;11.368;2024-03-17T04:15:45;1.13;;;0.67;;
68989;SDS011;56046;47.270;11.368;2024-03-17T04:18:10;0.90;;;0.67;;
68989;SDS011;56046;47.270;11.368;2024-03-17T04:20:36;2.65;;;0.93;;
68989;SDS011;56046;47.270;11.368;2024-03-17T04:23:01;1.40;;;0.90;;
68989;SDS011;56046;47.270;11.368;2024-03-17T04:25:28;2.58;;;0.90;;
68989;SDS011;56046;47.270;11.368;2024-03-17T04:27:53;1.50;;;0.77;;
68989;SDS011;56046;47.270;11.368;2024-03-17T04:30:19;1.13;;;0.60;;
68989;SDS011;56046;47.270;11.368;2024-03-17T04:32:44;2.17;;;0.90;;
68989;SDS011;56046;47.270;11.368;2024-03-17T04:35:10;2.10;;;0.87;;
68989;SDS011;56046;47.270;11.368;2024-03-17T04:37:35;2.05;;;0.90;;
68989;SDS011;56046;47.270;11.368;2024-03-17T04:40:04;3.67;;;1.00;;
68989;SDS011;56046;47.270;11.368;2024-03-17T04:42:29;1.57;;;0.87;;
68989;SDS011;56046;47.270;11.368;2024-03-17T04:44:55;2.27;;;0.77;;
68989;SDS011;56046;47.270;11.368;2024-03-17T04:47:20;2.03;;;1.00;;
68989;SDS011;56046;47.270;11.368;2024-03-17T04:49:45;1.33;;;1.00;;
68989;SDS011;56046;47.270;11.368;2024-03-17T04:52:11;2.57;;;1.10;;
68989;SDS011;56046;47.270;11.368;2024-03-17T04:54:37;2.00;;;1.00;;
68989;SDS011;56046;47.270;11.368;2024-03-17T04:57:02;2.63;;;0.90;;
68989;SDS011;56046;47.270;11.368;2024-03-17T04:59:28;1.23;;;0.73;;
68989;SDS011;56046;47.270;11.368;2024-03-17T05:01:53;2.40;;;1.23;;
68989;SDS011;56046;47.270;11.368;2024-03-17T05:04:18;1.43;;;0.80;;
68989;SDS011;56046;47.270;11.368;2024-03-17T05:06:44;1.80;;;0.80;;
68989;SDS011;56046;47.270;11.368;2024-03-17T05:09:12;2.25;;;1.20;;
68989;SDS011;56046;47.270;11.368;2024-03-17T05:11:38;2.37;;;0.80;;
68989;SDS011;56046;47.270;11.368;2024-03-17T05:14:04;2.28;;;0.80;;
68989;SDS011;56046;47.270;11.368;2024-03-17T05:16:29;1.17;;;0.70;;
68989;SDS011;56046;47.270;11.368;2024-03-17T05:18:55;2.70;;;0.70;;
68989;SDS011;56046;47.270;11.368;2024-03-17T05:21:20;1.93;;;0.80;;
68989;SDS011;56046;47.270;11.368;2024-03-17T05:23:47;2.42;;;0.80;;
68989;SDS011;56046;47.270;11.368;2024-03-17T05:26:13;3.10;;;1.15;;
68989;SDS011;56046;47.270;11.368;2024-03-17T05:28:38;1.70;;;0.93;;
68989;SDS011;56046;47.270;11.368;2024-03-17T05:31:04;2.33;;;0.93;;
68989;SDS011;56046;47.270;11.368;2024-03-17T05:33:29;1.60;;;0.90;;
68989;SDS011;56046;47.270;11.368;2024-03-17T05:35:55;2.17;;;0.97;;
68989;SDS011;56046;47.270;11.368;2024-03-17T05:38:21;2.40;;;1.07;;
68989;SDS011;56046;47.270;11.368;2024-03-17T05:43:19;5.50;;;1.13;;
68989;SDS011;56046;47.270;11.368;2024-03-17T05:45:44;1.80;;;0.90;;
68989;SDS011;56046;47.270;11.368;2024-03-17T05:48:09;1.90;;;0.70;;
68989;SDS011;56046;47.270;11.368;2024-03-17T05:50:34;1.83;;;0.97;;
68989;SDS011;56046;47.270;11.368;2024-03-17T05:53:00;1.73;;;1.00;;
68989;SDS011;56046;47.270;11.368;2024-03-17T05:55:25;2.13;;;0.97;;
68989;SDS011;56046;47.270;11.368;2024-03-17T05:57:50;2.67;;;1.10;;
68989;SDS011;56046;47.270;11.368;2024-03-17T06:00:15;2.13;;;1.07;;
68989;SDS011;56046;47.270;11.368;2024-03-17T06:02:41;2.97;;;1.00;;
68989;SDS011;56046;47.270;11.368;2024-03-17T06:05:06;3.80;;;1.30;;
68989;SDS011;56046;47.270;11.368;2024-03-17T06:07:35;4.13;;;1.77;;
68989;SDS011;56046;47.270;11.368;2024-03-17T06:10:00;5.13;;;2.00;;
68989;SDS011;56046;47.270;11.368;2024-03-17T06:12:25;3.13;;;1.50;;
68989;SDS011;56046;47.270;11.368;2024-03-17T06:14:50;2.27;;;1.00;;
68989;SDS011;56046;47.270;11.368;2024-03-17T06:17:16;1.80;;;1.20;;
68989;SDS011;56046;47.270;11.368;2024-03-17T06:19:41;3.13;;;1.30;;
68989;SDS011;56046;47.270;11.368;2024-03-17T06:22:06;2.60;;;1.30;;
68989;SDS011;56046;47.270;11.368;2024-03-17T06:24:31;2.78;;;1.48;;
68989;SDS011;56046;47.270;11.368;2024-03-17T06:26:57;3.15;;;1.45;;
68989;SDS011;56046;47.270;11.368;2024-03-17T06:29:22;2.80;;;1.37;;
68989;SDS011;56046;47.270;11.368;2024-03-17T06:31:47;3.27;;;1.27;;
68989;SDS011;56046;47.270;11.368;2024-03-17T06:34:14;5.50;;;1.70;;
68989;SDS011;56046;47.270;11.368;2024-03-17T06:36:41;7.63;;;1.33;;
68989;SDS011;56046;47.270;11.368;2024-03-17T06:39:07;4.07;;;1.52;;
68989;SDS011;56046;47.270;11.368;2024-03-17T06:41:32;2.33;;;1.37;;
68989;SDS011;56046;47.270;11.368;2024-03-17T06:43:57;1.87;;;1.10;;
68989;SDS011;56046;47.270;11.368;2024-03-17T06:46:24;3.42;;;1.30;;
68989;SDS011;56046;47.270;11.368;2024-03-17T06:48:49;2.27;;;1.00;;
68989;SDS011;56046;47.270;11.368;2024-03-17T06:51:16;3.78;;;1.33;;
68989;SDS011;56046;47.270;11.368;2024-03-17T06:53:41;5.10;;;1.60;;
68989;SDS011;56046;47.270;11.368;2024-03-17T06:56:07;3.30;;;1.57;;
68989;SDS011;56046;47.270;11.368;2024-03-17T06:58:32;3.83;;;2.10;;
68989;SDS011;56046;47.270;11.368;2024-03-17T07:00:58;3.33;;;1.40;;
68989;SDS011;56046;47.270;11.368;2024-03-17T07:03:25;4.05;;;1.92;;
68989;SDS011;56046;47.270;11.368;2024-03-17T07:05:51;4.10;;;1.60;;
68989;SDS011;56046;47.270;11.368;2024-03-17T07:08:16;3.67;;;1.55;;
68989;SDS011;56046;47.270;11.368;2024-03-17T07:10:42;3.40;;;1.57;;
68989;SDS011;56046;47.270;11.368;2024-03-17T07:13:07;3.00;;;1.60;;
68989;SDS011;56046;47.270;11.368;2024-03-17T07:15:32;4.23;;;1.90;;
68989;SDS011;56046;47.270;11.368;2024-03-17T07:17:57;3.87;;;1.80;;
68989;SDS011;56046;47.270;11.368;2024-03-17T07:20:23;2.83;;;1.70;;
68989;SDS011;56046;47.270;11.368;2024-03-17T07:22:48;2.53;;;1.15;;
68989;SDS011;56046;47.270;11.368;2024-03-17T07:25:15;2.23;;;1.10;;
68989;SDS011;56046;47.270;11.368;2024-03-17T07:27:40;2.47;;;1.30;;
68989;SDS011;56046;47.270;11.368;2024-03-17T07:30:05;2.20;;;1.20;;
68989;SDS011;56046;47.270;11.368;2024-03-17T07:32:31;3.47;;;0.80;;
68989;SDS011;56046;47.270;11.368;2024-03-17T07:34:57;3.97;;;1.58;;
68989;SDS011;56046;47.270;11.368;2024-03-17T07:37:22;2.47;;;1.20;;
68989;SDS011;56046;47.270;11.368;2024-03-17T07:39:47;2.80;;;1.33;;
68989;SDS011;56046;47.270;11.368;2024-03-17T07:42:14;1.70;;;0.82;;
68989;SDS011;56046;47.270;11.368;2024-03-17T07:44:39;1.73;;;0.90;;
68989;SDS011;56046;47.270;11.368;2024-03-17T07:47:08;1.73;;;1.00;;
68989;SDS011;56046;47.270;11.368;2024-03-17T07:49:33;1.97;;;0.93;;
68989;SDS011;56046;47.270;11.368;2024-03-17T07:51:58;3.00;;;1.00;;
68989;SDS011;56046;47.270;11.368;2024-03-17T07:54:26;1.77;;;1.20;;
68989;SDS011;56046;47.270;11.368;2024-03-17T07:56:52;2.45;;;1.30;;
68989;SDS011;56046;47.270;11.368;2024-03-17T07:59:17;3.23;;;1.50;;
68989;SDS011;56046;47.270;11.368;2024-03-17T08:01:43;2.20;;;1.27;;
68989;SDS011;56046;47.270;11.368;2024-03-17T08:04:08;2.23;;;1.33;;
68989;SDS011;56046;47.270;11.368;2024-03-17T08:06:33;3.33;;;1.50;;
68989;SDS011;56046;47.270;11.368;2024-03-17T08:08:59;3.20;;;1.77;;
68989;SDS011;56046;47.270;11.368;2024-03-17T08:11:24;2.90;;;1.20;;
68989;SDS011;56046;47.270;11.368;2024-03-17T08:13:49;4.07;;;1.50;;
68989;SDS011;56046;47.270;11.368;2024-03-17T08:16:15;2.80;;;1.30;;
68989;SDS011;56046;47.270;11.368;2024-03-17T08:18:42;3.42;;;1.40;;
68989;SDS011;56046;47.270;11.368;2024-03-17T08:21:07;3.33;;;1.47;;
68989;SDS011;56046;47.270;11.368;2024-03-17T08:23:32;4.20;;;1.90;;
68989;SDS011;56046;47.270;11.368;2024-03-17T08:26:01;3.70;;;1.80;;
68989;SDS011;56046;47.270;11.368;2024-03-17T08:28:27;2.78;;;1.67;;
68989;SDS011;56046;47.270;11.368;2024-03-17T08:33:18;2.57;;;1.60;;
68989;SDS011;56046;47.270;11.368;2024-03-17T08:35:51;2.43;;;1.30;;
68989;SDS011;56046;47.270;11.368;2024-03-17T08:38:17;2.92;;;1.55;;
68989;SDS011;56046;47.270;11.368;2024-03-17T08:40:44;2.83;;;1.20;;
68989;SDS011;56046;47.270;11.368;2024-03-17T08:43:10;2.17;;;1.23;;
68989;SDS011;56046;47.270;11.368;2024-03-17T08:45:35;3.13;;;1.40;;
68989;SDS011;56046;47.270;11.368;2024-03-17T08:48:00;3.50;;;1.40;;
68989;SDS011;56046;47.270;11.368;2024-03-17T08:50:25;3.73;;;2.00;;
68989;SDS011;56046;47.270;11.368;2024-03-17T08:52:51;2.83;;;1.47;;
68989;SDS011;56046;47.270;11.368;2024-03-17T08:55:16;1.73;;;1.13;;
68989;SDS011;56046;47.270;11.368;2024-03-17T08:57:42;4.50;;;1.63;;
68989;SDS011;56046;47.270;11.368;2024-03-17T09:00:07;2.33;;;1.30;;
68989;SDS011;56046;47.270;11.368;2024-03-17T09:02:34;2.73;;;1.20;;
68989;SDS011;56046;47.270;11.368;2024-03-17T09:04:59;2.87;;;1.53;;
68989;SDS011;56046;47.270;11.368;2024-03-17T09:07:24;3.20;;;2.70;;
68989;SDS011;56046;47.270;11.368;2024-03-17T09:09:50;2.87;;;1.70;;
68989;SDS011;56046;47.270;11.368;2024-03-17T09:12:15;4.13;;;1.80;;
68989;SDS011;56046;47.270;11.368;2024-03-17T09:14:41;5.07;;;1.83;;
68989;SDS011;56046;47.270;11.368;2024-03-17T09:17:07;2.30;;;1.58;;
68989;SDS011;56046;47.270;11.368;2024-03-17T09:19:32;3.53;;;1.63;;
68989;SDS011;56046;47.270;11.368;2024-03-17T09:21:58;2.25;;;1.35;;
68989;SDS011;56046;47.270;11.368;2024-03-17T09:24:24;2.73;;;1.60;;
68989;SDS011;56046;47.270;11.368;2024-03-17T09:26:49;2.17;;;1.30;;
68989;SDS011;56046;47.270;11.368;2024-03-17T09:29:14;2.00;;;1.30;;
68989;SDS011;56046;47.270;11.368;2024-03-17T09:31:42;3.50;;;1.43;;
68989;SDS011;56046;47.270;11.368;2024-03-17T09:34:08;2.13;;;1.40;;
68989;SDS011;56046;47.270;11.368;2024-03-17T09:36:34;3.17;;;1.58;;
68989;SDS011;56046;47.270;11.368;2024-03-17T09:38:59;3.17;;;2.00;;
68989;SDS011;56046;47.270;11.368;2024-03-17T09:41:25;2.85;;;1.45;;
68989;SDS011;56046;47.270;11.368;2024-03-17T09:43:54;2.33;;;1.45;;
68989;SDS011;56046;47.270;11.368;2024-03-17T09:46:20;1.95;;;1.45;;
68989;SDS011;56046;47.270;11.368;2024-03-17T09:48:46;2.67;;;1.30;;
68989;SDS011;56046;47.270;11.368;2024-03-17T09:51:16;2.90;;;1.60;;
68989;SDS011;56046;47.270;11.368;2024-03-17T09:53:43;2.10;;;1.30;;
68989;SDS011;56046;47.270;11.368;2024-03-17T09:56:09;2.93;;;1.27;;
68989;SDS011;56046;47.270;11.368;2024-03-17T09:58:35;2.87;;;1.70;;
68989;SDS011;56046;47.270;11.368;2024-03-17T10:01:00;2.13;;;1.40;;
68989;SDS011;56046;47.270;11.368;2024-03-17T10:06:32;2.75;;;1.65;;
68989;SDS011;56046;47.270;11.368;2024-03-17T10:08:58;1.90;;;1.20;;
68989;SDS011;56046;47.270;11.368;2024-03-17T10:11:24;2.87;;;1.50;;
68989;SDS011;56046;47.270;11.368;2024-03-17T10:14:08;3.03;;;1.63;;
68989;SDS011;56046;47.270;11.368;2024-03-17T10:16:37;2.90;;;1.40;;
68989;SDS011;56046;47.270;11.368;2024-03-17T10:19:12;3.50;;;1.70;;
68989;SDS011;56046;47.270;11.368;2024-03-17T10:21:39;3.92;;;1.80;;
68989;SDS011;56046;47.270;11.368;2024-03-17T10:24:23;2.23;;;1.43;;
68989;SDS011;56046;47.270;11.368;2024-03-17T10:26:50;3.30;;;1.70;;
68989;SDS011;56046;47.270;11.368;2024-03-17T10:31:47;3.15;;;1.80;;
68989;SDS011;56046;47.270;11.368;2024-03-17T10:34:14;3.17;;;1.63;;
68989;SDS011;56046;47.270;11.368;2024-03-17T10:36:40;2.85;;;1.63;;
68989;SDS011;56046;47.270;11.368;2024-03-17T10:39:06;2.43;;;1.50;;
68989;SDS011;56046;47.270;11.368;2024-03-17T10:41:41;3.65;;;1.70;;
68989;SDS011;56046;47.270;11.368;2024-03-17T10:44:06;3.57;;;1.70;;
68989;SDS011;56046;47.270;11.368;2024-03-17T10:46:32;3.23;;;1.93;;
68989;SDS011;56046;47.270;11.368;2024-03-17T10:48:57;2.83;;;1.10;;
68989;SDS011;56046;47.270;11.368;2024-03-17T10:51:22;2.17;;;1.30;;
68989;SDS011;56046;47.270;11.368;2024-03-17T10:53:49;2.60;;;1.58;;
68989;SDS011;56046;47.270;11.368;2024-03-17T10:56:15;3.00;;;1.65;;
68989;SDS011;56046;47.270;11.368;2024-03-17T10:58:44;2.63;;;1.42;;
68989;SDS011;56046;47.270;11.368;2024-03-17T11:01:14;4.20;;;1.07;;
68989;SDS011;56046;47.270;11.368;2024-03-17T11:03:40;2.55;;;1.00;;
68989;SDS011;56046;47.270;11.368;2024-03-17T11:06:06;2.83;;;1.60;;
68989;SDS011;56046;47.270;11.368;2024-03-17T11:08:33;5.00;;;2.43;;
68989;SDS011;56046;47.270;11.368;2024-03-17T11:10:59;2.72;;;1.13;;
68989;SDS011;56046;47.270;11.368;2024-03-17T11:13:25;3.30;;;2.00;;
68989;SDS011;56046;47.270;11.368;2024-03-17T11:15:51;3.63;;;2.13;;
68989;SDS011;56046;47.270;11.368;2024-03-17T11:23:59;2.20;;;1.60;;
68989;SDS011;56046;47.270;11.368;2024-03-17T11:26:29;2.22;;;1.27;;
68989;SDS011;56046;47.270;11.368;2024-03-17T11:28:54;2.10;;;1.58;;
68989;SDS011;56046;47.270;11.368;2024-03-17T11:33:58;3.03;;;1.17;;
68989;SDS011;56046;47.270;11.368;2024-03-17T11:38:57;2.65;;;1.52;;
68989;SDS011;56046;47.270;11.368;2024-03-17T11:46:43;2.80;;;1.30;;
68989;SDS011;56046;47.270;11.368;2024-03-17T11:49:19;2.17;;;1.40;;
68989;SDS011;56046;47.270;11.368;2024-03-17T11:51:45;1.67;;;1.10;;
68989;SDS011;56046;47.270;11.368;2024-03-17T11:54:18;2.33;;;1.38;;
68989;SDS011;56046;47.270;11.368;2024-03-17T11:56:50;1.88;;;1.48;;
68989;SDS011;56046;47.270;11.368;2024-03-17T11:59:18;1.53;;;1.43;;
68989;SDS011;56046;47.270;11.368;2024-03-17T12:01:50;2.00;;;1.40;;
68989;SDS011;56046;47.270;11.368;2024-03-17T12:04:16;2.05;;;1.25;;
68989;SDS011;56046;47.270;11.368;2024-03-17T12:09:21;1.85;;;1.13;;
68989;SDS011;56046;47.270;11.368;2024-03-17T12:11:58;1.77;;;1.10;;
68989;SDS011;56046;47.270;11.368;2024-03-17T12:14:23;1.40;;;1.00;;
68989;SDS011;56046;47.270;11.368;2024-03-17T12:16:51;1.60;;;1.15;;
68989;SDS011;56046;47.270;11.368;2024-03-17T12:19:19;1.80;;;1.08;;
68989;SDS011;56046;47.270;11.368;2024-03-17T12:21:45;6.85;;;2.90;;
68989;SDS011;56046;47.270;11.368;2024-03-17T12:24:14;2.63;;;1.60;;
68989;SDS011;56046;47.270;11.368;2024-03-17T12:26:40;3.03;;;1.60;;
68989;SDS011;56046;47.270;11.368;2024-03-17T12:29:08;1.80;;;1.10;;
68989;SDS011;56046;47.270;11.368;2024-03-17T12:31:43;2.08;;;1.38;;
68989;SDS011;56046;47.270;11.368;2024-03-17T12:34:09;2.63;;;1.50;;
68989;SDS011;56046;47.270;11.368;2024-03-17T12:36:34;1.83;;;1.37;;
68989;SDS011;56046;47.270;11.368;2024-03-17T12:39:09;1.87;;;1.50;;
68989;SDS011;56046;47.270;11.368;2024-03-17T12:41:36;1.80;;;1.30;;
68989;SDS011;56046;47.270;11.368;2024-03-17T12:44:01;1.97;;;1.30;;
68989;SDS011;56046;47.270;11.368;2024-03-17T12:46:26;3.70;;;1.43;;
68989;SDS011;56046;47.270;11.368;2024-03-17T12:48:57;1.47;;;1.20;;
68989;SDS011;56046;47.270;11.368;2024-03-17T12:51:23;1.30;;;1.13;;
68989;SDS011;56046;47.270;11.368;2024-03-17T12:53:48;1.77;;;1.08;;
68989;SDS011;56046;47.270;11.368;2024-03-17T12:56:22;1.47;;;1.07;;
68989;SDS011;56046;47.270;11.368;2024-03-17T12:59:07;2.30;;;1.38;;
68989;SDS011;56046;47.270;11.368;2024-03-17T13:02:01;1.67;;;1.30;;
68989;SDS011;56046;47.270;11.368;2024-03-17T13:04:26;3.42;;;1.20;;
68989;SDS011;56046;47.270;11.368;2024-03-17T13:06:51;3.90;;;1.27;;
68989;SDS011;56046;47.270;11.368;2024-03-17T13:09:17;1.67;;;1.00;;
68989;SDS011;56046;47.270;11.368;2024-03-17T13:11:42;0.90;;;0.53;;
68989;SDS011;56046;47.270;11.368;2024-03-17T13:14:07;1.27;;;0.90;;
68989;SDS011;56046;47.270;11.368;2024-03-17T13:16:38;1.17;;;1.00;;
68989;SDS011;56046;47.270;11.368;2024-03-17T13:19:04;1.17;;;0.90;;
68989;SDS011;56046;47.270;11.368;2024-03-17T13:21:29;1.20;;;0.80;;
68989;SDS011;56046;47.270;11.368;2024-03-17T13:23:54;1.63;;;1.30;;
68989;SDS011;56046;47.270;11.368;2024-03-17T13:26:20;1.53;;;1.00;;
68989;SDS011;56046;47.270;11.368;2024-03-17T13:28:45;1.87;;;0.80;;
68989;SDS011;56046;47.270;11.368;2024-03-17T13:31:11;1.92;;;1.20;;
68989;SDS011;56046;47.270;11.368;2024-03-17T13:33:37;1.67;;;1.20;;
68989;SDS011;56046;47.270;11.368;2024-03-17T13:36:03;2.22;;;0.77;;
68989;SDS011;56046;47.270;11.368;2024-03-17T13:38:28;2.40;;;0.97;;
68989;SDS011;56046;47.270;11.368;2024-03-17T13:40:54;1.20;;;0.97;;
68989;SDS011;56046;47.270;11.368;2024-03-17T13:43:19;1.63;;;1.08;;
68989;SDS011;56046;47.270;11.368;2024-03-17T13:45:45;3.00;;;0.90;;
68989;SDS011;56046;47.270;11.368;2024-03-17T13:48:12;2.13;;;1.13;;
68989;SDS011;56046;47.270;11.368;2024-03-17T13:50:38;1.30;;;1.20;;
68989;SDS011;56046;47.270;11.368;2024-03-17T13:53:04;1.60;;;0.80;;
68989;SDS011;56046;47.270;11.368;2024-03-17T13:55:29;2.80;;;1.20;;
68989;SDS011;56046;47.270;11.368;2024-03-17T13:57:55;1.50;;;1.20;;
68989;SDS011;56046;47.270;11.368;2024-03-17T14:00:24;1.73;;;1.27;;
68989;SDS011;56046;47.270;11.368;2024-03-17T14:02:50;1.93;;;1.00;;
68989;SDS011;56046;47.270;11.368;2024-03-17T14:05:17;1.40;;;1.10;;
68989;SDS011;56046;47.270;11.368;2024-03-17T14:07:42;2.72;;;1.50;;
68989;SDS011;56046;47.270;11.368;2024-03-17T14:10:09;1.27;;;0.90;;
68989;SDS011;56046;47.270;11.368;2024-03-17T14:12:35;2.33;;;1.30;;
68989;SDS011;56046;47.270;11.368;2024-03-17T14:15:00;2.10;;;1.20;;
68989;SDS011;56046;47.270;11.368;2024-03-17T14:17:26;3.33;;;1.30;;
68989;SDS011;56046;47.270;11.368;2024-03-17T14:19:51;2.50;;;1.30;;
68989;SDS011;56046;47.270;11.368;2024-03-17T14:22:16;2.23;;;1.10;;
68989;SDS011;56046;47.270;11.368;2024-03-17T14:24:41;3.27;;;1.50;;
68989;SDS011;56046;47.270;11.368;2024-03-17T14:27:07;2.43;;;1.27;;
68989;SDS011;56046;47.270;11.368;2024-03-17T14:29:32;2.97;;;1.15;;
68989;SDS011;56046;47.270;11.368;2024-03-17T14:31:57;2.03;;;1.30;;
68989;SDS011;56046;47.270;11.368;2024-03-17T14:34:23;3.53;;;1.50;;
68989;SDS011;56046;47.270;11.368;2024-03-17T14:36:48;2.30;;;1.07;;
68989;SDS011;56046;47.270;11.368;2024-03-17T14:39:13;3.63;;;1.17;;
68989;SDS011;56046;47.270;11.368;2024-03-17T14:41:39;1.83;;;1.30;;
68989;SDS011;56046;47.270;11.368;2024-03-17T14:44:04;3.03;;;1.47;;
68989;SDS011;56046;47.270;11.368;2024-03-17T14:46:29;1.37;;;0.87;;
68989;SDS011;56046;47.270;11.368;2024-03-17T14:48:54;1.45;;;1.13;;
68989;SDS011;56046;47.270;11.368;2024-03-17T14:51:20;2.20;;;1.00;;
68989;SDS011;56046;47.270;11.368;2024-03-17T14:53:48;2.13;;;1.20;;
68989;SDS011;56046;47.270;11.368;2024-03-17T14:56:14;2.67;;;1.33;;